createdAt,value
2019-03-10T00:01:30.354Z,64.79
2019-03-10T00:04:00.030Z,64.81
2019-03-10T00:06:29.801Z,64.59
2019-03-10T00:08:59.338Z,64.77
2019-03-10T00:11:28.920Z,64.86
2019-03-10T00:13:58.484Z,64.78
2019-03-10T00:16:28.034Z,64.64
2019-03-10T00:18:57.763Z,64.76
2019-03-10T00:21:29.183Z,64.52
2019-03-10T00:24:00.795Z,64.62
2019-03-10T00:26:30.982Z,64.85
2019-03-10T00:29:00.936Z,64.93
2019-03-10T00:31:30.613Z,64.96
2019-03-10T00:34:02.662Z,65.14
2019-03-10T00:36:32.398Z,65.35
2019-03-10T00:39:18.456Z,65.58
2019-03-10T00:42:26.414Z,65.72
2019-03-10T00:45:32.047Z,65.93
2019-03-10T00:48:25.902Z,66.07
2019-03-10T00:51:10.383Z,66.20
2019-03-10T00:53:40.083Z,66.50
2019-03-10T00:56:09.886Z,66.76
2019-03-10T00:58:40.718Z,67.08
2019-03-10T01:01:11.337Z,67.20
2019-03-10T01:03:41.192Z,67.23
2019-03-10T01:06:11.110Z,67.42
2019-03-10T01:08:41.033Z,67.71
2019-03-10T01:11:10.875Z,67.89
2019-03-10T01:13:40.945Z,68.19
2019-03-10T01:16:13.677Z,68.32
2019-03-10T01:18:44.421Z,68.49
2019-03-10T01:21:14.703Z,68.55
2019-03-10T01:23:45.221Z,69.13
2019-03-10T01:26:14.784Z,69.25
2019-03-10T01:28:44.341Z,69.67
2019-03-10T01:31:27.456Z,70.10
2019-03-10T01:34:10.480Z,70.28
2019-03-10T01:36:40.045Z,70.71
2019-03-10T01:39:10.711Z,70.81
2019-03-10T01:41:40.273Z,70.94
2019-03-10T01:44:09.843Z,71.07
2019-03-10T01:46:39.390Z,71.23
2019-03-10T01:49:08.965Z,71.15
2019-03-10T01:51:39.617Z,71.40
2019-03-10T01:54:09.133Z,71.86
2019-03-10T01:56:38.675Z,71.98
2019-03-10T01:59:08.234Z,71.96
2019-03-10T02:01:37.773Z,72.35
2019-03-10T02:04:07.413Z,72.67
2019-03-10T02:06:36.977Z,72.64
2019-03-10T02:09:07.054Z,72.67
2019-03-10T02:11:36.599Z,73.10
2019-03-10T02:14:06.223Z,73.06
2019-03-10T02:16:35.802Z,73.36
2019-03-10T02:19:05.366Z,73.77
2019-03-10T02:21:34.954Z,73.90
2019-03-10T02:24:04.544Z,73.72
2019-03-10T02:26:34.139Z,74.07
2019-03-10T02:29:03.785Z,73.99
2019-03-10T02:31:33.361Z,74.15
2019-03-10T02:34:02.921Z,74.09
2019-03-10T02:36:32.538Z,73.89
2019-03-10T02:39:02.096Z,73.76
2019-03-10T02:41:31.864Z,73.73
2019-03-10T02:44:01.444Z,73.75
2019-03-10T02:46:31.009Z,73.85
2019-03-10T02:49:00.567Z,73.84
2019-03-10T02:51:30.163Z,73.69
2019-03-10T02:53:59.702Z,73.74
2019-03-10T02:56:29.283Z,73.74
2019-03-10T02:58:58.864Z,74.04
2019-03-10T03:01:28.412Z,74.10
2019-03-10T03:03:57.990Z,74.35
2019-03-10T03:06:27.526Z,74.41
2019-03-10T03:08:57.086Z,75.12
2019-03-10T03:11:26.641Z,75.18
2019-03-10T03:13:56.206Z,75.01
2019-03-10T03:16:25.772Z,74.85
2019-03-10T03:18:55.326Z,74.86
2019-03-10T03:21:24.877Z,74.75
2019-03-10T03:23:54.446Z,74.86
2019-03-10T03:26:23.994Z,74.91
2019-03-10T03:28:53.642Z,74.67
2019-03-10T03:31:23.199Z,74.70
2019-03-10T03:33:52.788Z,74.43
2019-03-10T03:36:27.289Z,74.63
2019-03-10T03:39:04.773Z,74.77
2019-03-10T03:41:34.348Z,75.56
2019-03-10T03:44:03.900Z,75.82
2019-03-10T03:46:33.534Z,76.23
2019-03-10T03:49:03.059Z,76.38
2019-03-10T03:51:32.692Z,76.55
2019-03-10T03:54:02.242Z,76.68
2019-03-10T03:56:31.817Z,76.84
2019-03-10T03:59:01.382Z,77.11
2019-03-10T04:01:38.086Z,77.05
2019-03-10T04:04:07.615Z,77.17
2019-03-10T04:06:37.233Z,77.27
2019-03-10T04:09:08.760Z,77.46
2019-03-10T04:11:38.316Z,77.63
2019-03-10T04:14:07.937Z,77.77
2019-03-10T04:16:37.490Z,77.95
2019-03-10T04:19:07.134Z,78.38
2019-03-10T04:21:36.728Z,78.64
2019-03-10T04:24:06.329Z,78.95
2019-03-10T04:26:35.861Z,79.34
2019-03-10T04:29:05.522Z,79.95
2019-03-10T04:31:35.107Z,80.12
2019-03-10T04:34:04.635Z,80.05
2019-03-10T04:36:34.179Z,80.53
2019-03-10T04:39:05.051Z,80.50
2019-03-10T04:41:34.604Z,80.40
2019-03-10T04:44:04.240Z,80.51
2019-03-10T04:46:33.816Z,80.48
2019-03-10T04:49:03.360Z,80.54
2019-03-10T04:51:32.932Z,80.58
2019-03-10T04:54:02.474Z,80.57
2019-03-10T04:56:33.648Z,80.68
2019-03-10T04:59:03.213Z,80.75
2019-03-10T05:01:32.798Z,80.81
2019-03-10T05:04:02.362Z,80.83
2019-03-10T05:06:31.908Z,80.79
2019-03-10T05:09:01.473Z,80.84
2019-03-10T05:11:31.023Z,80.90
2019-03-10T05:14:00.585Z,81.05
2019-03-10T05:16:30.337Z,81.09
2019-03-10T05:18:59.863Z,81.01
2019-03-10T05:21:29.692Z,80.95
2019-03-10T05:24:03.336Z,80.88
2019-03-10T05:26:32.895Z,80.92
2019-03-10T05:29:02.446Z,80.78
2019-03-10T05:31:32.028Z,80.80
2019-03-10T05:34:01.577Z,80.88
2019-03-10T05:36:31.111Z,81.10
2019-03-10T05:39:00.678Z,81.18
2019-03-10T05:41:30.418Z,81.18
2019-03-10T05:43:59.957Z,81.23
2019-03-10T05:46:29.505Z,81.24
2019-03-10T05:48:59.050Z,81.31
2019-03-10T05:51:28.585Z,81.34
2019-03-10T05:53:58.148Z,81.33
2019-03-10T05:56:27.692Z,81.43
2019-03-10T05:58:57.224Z,81.42
2019-03-10T06:01:26.783Z,81.46
2019-03-10T06:03:56.351Z,81.49
2019-03-10T06:06:25.904Z,81.40
2019-03-10T06:08:55.463Z,81.37
2019-03-10T06:11:25.017Z,81.31
2019-03-10T06:13:54.586Z,81.24
2019-03-10T06:16:24.145Z,81.30
2019-03-10T06:18:53.708Z,81.40
2019-03-10T06:21:23.237Z,81.50
2019-03-10T06:23:52.837Z,81.45
2019-03-10T06:26:22.372Z,81.48
2019-03-10T06:28:51.955Z,81.56
2019-03-10T06:31:21.542Z,81.59
2019-03-10T06:33:51.070Z,81.71
2019-03-10T06:36:20.621Z,81.71
2019-03-10T06:38:50.168Z,81.83
2019-03-10T06:41:19.740Z,81.89
2019-03-10T06:43:49.353Z,81.98
2019-03-10T06:46:18.900Z,82.28
2019-03-10T06:48:48.481Z,82.54
2019-03-10T06:51:18.008Z,82.58
2019-03-10T06:53:47.585Z,82.71
2019-03-10T06:56:17.117Z,82.73
2019-03-10T06:58:46.694Z,82.71
2019-03-10T07:01:16.262Z,82.61
2019-03-10T07:03:45.803Z,82.59
2019-03-10T07:06:15.439Z,82.53
2019-03-10T07:08:44.987Z,82.52
2019-03-10T07:11:14.549Z,82.40
2019-03-10T07:13:44.098Z,82.24
2019-03-10T07:16:13.667Z,82.07
2019-03-10T07:18:43.202Z,82.10
2019-03-10T07:21:12.720Z,82.00
2019-03-10T07:23:42.280Z,81.85
2019-03-10T07:26:11.816Z,81.71
2019-03-10T07:28:49.256Z,81.65
2019-03-10T07:31:35.077Z,81.47
2019-03-10T07:34:22.251Z,81.58
2019-03-10T07:37:09.048Z,81.56
2019-03-10T07:39:52.161Z,81.50
2019-03-10T07:42:39.246Z,81.49
2019-03-10T07:45:23.547Z,81.43
2019-03-10T07:47:54.784Z,81.44
2019-03-10T07:50:26.037Z,81.49
2019-03-10T07:52:57.228Z,81.45
2019-03-10T07:55:26.550Z,81.43
2019-03-10T07:58:06.669Z,81.46
2019-03-10T08:00:37.870Z,81.39
2019-03-10T08:03:26.820Z,81.32
2019-03-10T08:06:06.485Z,81.42
2019-03-10T08:08:37.674Z,81.47
2019-03-10T08:11:11.648Z,81.40
2019-03-10T08:13:45.722Z,81.46
2019-03-10T08:16:33.092Z,81.50
2019-03-10T08:19:16.720Z,81.67
2019-03-10T08:22:03.961Z,81.60
2019-03-10T08:24:51.224Z,81.67
2019-03-10T08:27:39.137Z,81.70
2019-03-10T08:30:17.149Z,81.90
2019-03-10T08:32:49.373Z,81.88
2019-03-10T08:35:18.739Z,81.86
2019-03-10T08:38:01.475Z,81.90
2019-03-10T08:40:35.718Z,81.99
2019-03-10T08:43:12.987Z,81.99
2019-03-10T08:45:44.947Z,82.01
2019-03-10T08:48:25.934Z,82.29
2019-03-10T08:50:57.332Z,82.24
2019-03-10T08:53:29.769Z,82.48
2019-03-10T08:56:06.395Z,82.51
2019-03-10T08:58:40.653Z,83.13
2019-03-10T09:01:25.579Z,83.90
2019-03-10T09:04:14.979Z,83.56
2019-03-10T09:06:46.199Z,83.34
2019-03-10T09:09:17.381Z,83.18
2019-03-10T09:11:50.505Z,83.07
2019-03-10T09:14:31.729Z,82.86
2019-03-10T09:17:14.979Z,82.71
2019-03-10T09:19:46.171Z,82.60
2019-03-10T09:22:28.834Z,82.65
2019-03-10T09:25:16.000Z,82.61
2019-03-10T09:27:47.224Z,82.58
2019-03-10T09:30:34.270Z,82.50
2019-03-10T09:33:11.199Z,82.47
2019-03-10T09:35:46.784Z,82.49
2019-03-10T09:38:34.240Z,82.48
2019-03-10T09:41:11.425Z,82.49
2019-03-10T09:43:58.349Z,82.36
2019-03-10T09:46:32.352Z,82.41
2019-03-10T09:49:03.567Z,82.76
2019-03-10T09:51:40.226Z,82.81
2019-03-10T09:54:20.871Z,83.12
2019-03-10T09:56:54.568Z,83.22
2019-03-10T09:59:25.775Z,83.55
2019-03-10T10:02:02.695Z,83.39
2019-03-10T10:04:37.998Z,83.44
2019-03-10T10:07:09.328Z,83.66
2019-03-10T10:09:43.978Z,83.75
2019-03-10T10:12:15.161Z,84.03
2019-03-10T10:14:48.670Z,84.10
2019-03-10T10:17:20.007Z,84.59
2019-03-10T10:19:59.981Z,84.64
2019-03-10T10:22:34.100Z,85.32
2019-03-10T10:25:05.573Z,86.07
2019-03-10T10:27:36.797Z,86.31
2019-03-10T10:30:12.905Z,86.46
2019-03-10T10:32:46.779Z,87.48
2019-03-10T10:35:17.991Z,87.09
2019-03-10T10:38:04.482Z,88.07
2019-03-10T10:40:36.887Z,88.57
2019-03-10T10:43:13.797Z,88.10
2019-03-10T10:45:43.103Z,87.73
2019-03-10T10:48:16.763Z,87.87
2019-03-10T10:51:04.256Z,88.21
2019-03-10T10:53:45.202Z,88.01
2019-03-10T10:56:24.261Z,88.37
2019-03-10T10:59:10.021Z,88.56
2019-03-10T11:01:41.280Z,89.63
2019-03-10T11:04:21.405Z,89.52
2019-03-10T11:07:01.495Z,90.08
2019-03-10T11:09:30.831Z,90.27
2019-03-10T11:12:10.829Z,90.47
2019-03-10T11:14:58.048Z,90.53
2019-03-10T11:17:31.995Z,90.29
2019-03-10T11:20:01.543Z,90.11
2019-03-10T11:22:38.514Z,90.01
2019-03-10T11:25:21.752Z,89.78
2019-03-10T11:27:53.090Z,89.58
2019-03-10T11:30:33.937Z,88.92
2019-03-10T11:33:05.157Z,87.88
2019-03-10T11:35:53.522Z,85.92
2019-03-10T11:38:32.894Z,84.54
2019-03-10T11:41:33.076Z,83.65
2019-03-10T11:44:06.606Z,83.41
2019-03-10T11:46:43.396Z,82.89
2019-03-10T11:49:30.206Z,82.25
2019-03-10T11:52:16.520Z,81.62
2019-03-10T11:54:55.007Z,81.11
2019-03-10T11:57:28.947Z,79.98
2019-03-10T12:00:06.118Z,78.30
2019-03-10T12:02:37.330Z,78.20
2019-03-10T12:05:26.398Z,78.80
2019-03-10T12:07:57.587Z,79.26
2019-03-10T12:10:27.244Z,79.47
2019-03-10T12:12:57.041Z,79.39
2019-03-10T12:15:26.619Z,79.53
2019-03-10T12:17:56.247Z,79.65
2019-03-10T12:20:25.816Z,79.27
2019-03-10T12:22:56.330Z,80.15
2019-03-10T12:25:25.892Z,80.29
2019-03-10T12:27:55.501Z,80.29
2019-03-10T12:30:31.748Z,79.98
2019-03-10T12:33:01.316Z,78.94
2019-03-10T12:35:34.769Z,79.37
2019-03-10T12:38:02.171Z,79.35
2019-03-10T12:40:31.729Z,79.65
2019-03-10T12:43:01.369Z,79.60
2019-03-10T12:45:31.017Z,79.76
2019-03-10T12:48:00.578Z,80.01
2019-03-10T12:50:30.190Z,80.77
2019-03-10T12:52:59.761Z,81.17
2019-03-10T12:55:29.419Z,81.85
2019-03-10T12:57:58.982Z,82.69
2019-03-10T13:00:28.626Z,82.97
2019-03-10T13:02:58.468Z,82.77
2019-03-10T13:05:30.597Z,82.44
2019-03-10T13:08:01.316Z,82.13
2019-03-10T13:10:31.887Z,81.05
2019-03-10T13:13:02.638Z,81.06
2019-03-10T13:15:32.287Z,80.21
2019-03-10T13:18:02.794Z,79.44
2019-03-10T13:20:34.093Z,78.77
2019-03-10T13:23:03.899Z,78.87
2019-03-10T13:25:33.483Z,79.46
2019-03-10T13:28:03.041Z,80.14
2019-03-10T13:30:32.632Z,80.74
2019-03-10T13:33:02.325Z,81.04
2019-03-10T13:35:31.887Z,81.77
2019-03-10T13:38:01.442Z,82.42
2019-03-10T13:40:31.076Z,82.69
2019-03-10T13:43:00.671Z,82.82
2019-03-10T13:45:30.223Z,82.78
2019-03-10T13:48:00.047Z,82.38
2019-03-10T13:50:29.698Z,80.53
2019-03-10T13:52:59.382Z,79.65
2019-03-10T13:55:28.915Z,79.84
2019-03-10T13:57:58.496Z,79.73
2019-03-10T14:00:28.034Z,79.57
2019-03-10T14:02:58.748Z,79.17
2019-03-10T14:05:28.321Z,78.17
2019-03-10T14:15:38.646Z,71.83
2019-03-10T14:18:08.622Z,67.45
2019-03-10T14:20:38.158Z,65.51
2019-03-10T14:23:08.900Z,64.67
2019-03-10T14:25:47.869Z,64.97
2019-03-10T14:28:22.080Z,64.16
2019-03-10T14:30:51.739Z,65.16
2019-03-10T14:33:21.503Z,65.23
2019-03-10T14:35:51.050Z,64.73
2019-03-10T14:38:20.795Z,64.76
2019-03-10T14:40:50.362Z,65.77
2019-03-10T14:43:19.987Z,64.33
2019-03-10T14:45:49.579Z,63.57
2019-03-10T14:48:19.181Z,62.81
2019-03-10T14:50:48.701Z,63.09
2019-03-10T14:53:18.292Z,63.68
2019-03-10T14:55:47.887Z,63.72
2019-03-10T14:58:17.405Z,62.58
2019-03-10T15:00:46.981Z,63.85
2019-03-10T15:03:16.528Z,63.16
2019-03-10T15:05:46.084Z,63.77
2019-03-10T15:08:15.598Z,63.62
2019-03-10T15:10:45.236Z,63.92
2019-03-10T15:13:14.771Z,64.28
2019-03-10T15:15:44.342Z,64.40
2019-03-10T15:18:13.966Z,64.46
2019-03-10T15:20:43.521Z,64.54
2019-03-10T15:23:13.081Z,64.92
2019-03-10T15:25:42.675Z,64.82
2019-03-10T15:28:12.355Z,65.21
2019-03-10T15:30:41.956Z,65.35
2019-03-10T15:33:11.487Z,65.88
2019-03-10T15:35:41.126Z,66.27
2019-03-10T15:38:10.796Z,65.90
2019-03-10T15:40:40.390Z,65.91
2019-03-10T15:43:13.943Z,66.01
2019-03-10T15:45:43.537Z,65.76
2019-03-10T15:48:13.081Z,65.46
2019-03-10T15:50:46.988Z,65.53
2019-03-10T15:53:16.643Z,65.29
2019-03-10T15:55:46.289Z,65.85
2019-03-10T15:58:15.856Z,65.76
2019-03-10T16:00:45.405Z,66.24
2019-03-10T16:03:14.964Z,65.94
2019-03-10T16:05:44.534Z,66.18
2019-03-10T16:08:14.345Z,66.91
2019-03-10T16:10:45.175Z,66.78
2019-03-10T16:13:14.785Z,66.79
2019-03-10T16:15:44.371Z,66.81
2019-03-10T16:18:13.987Z,66.50
2019-03-10T16:20:43.519Z,66.89
2019-03-10T16:23:13.215Z,67.70
2019-03-10T16:25:42.766Z,68.73
2019-03-10T16:28:12.553Z,69.27
2019-03-10T16:30:42.186Z,71.51
2019-03-10T16:33:11.699Z,72.81
2019-03-10T16:35:41.243Z,73.04
2019-03-10T16:38:10.780Z,73.28
2019-03-10T16:40:40.330Z,73.44
2019-03-10T16:43:09.874Z,74.03
2019-03-10T16:45:39.410Z,74.54
2019-03-10T16:48:08.954Z,75.50
2019-03-10T16:50:38.678Z,75.13
2019-03-10T16:53:08.247Z,75.10
2019-03-10T16:55:37.934Z,75.33
2019-03-10T16:58:07.538Z,75.49
2019-03-10T17:00:37.683Z,75.41
2019-03-10T17:03:11.766Z,75.53
2019-03-10T17:05:48.103Z,75.84
2019-03-10T17:08:17.840Z,75.72
2019-03-10T17:10:47.412Z,76.17
2019-03-10T17:13:17.037Z,76.46
2019-03-10T17:15:46.646Z,76.21
2019-03-10T17:18:16.270Z,76.76
2019-03-10T17:20:45.901Z,76.96
2019-03-10T17:23:15.446Z,77.76
2019-03-10T17:25:45.153Z,78.12
2019-03-10T17:28:14.719Z,78.82
2019-03-10T17:30:44.693Z,78.55
2019-03-10T17:33:14.239Z,78.44
2019-03-10T17:35:43.840Z,78.58
2019-03-10T17:38:13.420Z,78.83
2019-03-10T17:40:42.937Z,79.60
2019-03-10T17:43:12.490Z,79.76
2019-03-10T17:45:42.444Z,80.00
2019-03-10T17:48:13.189Z,80.02
2019-03-10T17:50:43.224Z,80.45
2019-03-10T17:53:12.813Z,80.23
2019-03-10T17:55:42.341Z,80.53
2019-03-10T17:58:11.971Z,80.70
2019-03-10T18:00:41.520Z,80.83
2019-03-10T18:03:11.051Z,80.97
2019-03-10T18:05:42.552Z,81.01
2019-03-10T18:08:14.179Z,80.73
2019-03-10T18:10:43.770Z,80.57
2019-03-10T18:13:13.295Z,80.36
2019-03-10T18:15:42.928Z,80.46
2019-03-10T18:18:12.469Z,80.91
2019-03-10T18:20:42.010Z,81.26
2019-03-10T18:23:11.569Z,81.65
2019-03-10T18:25:41.097Z,82.01
2019-03-10T18:28:10.652Z,81.75
2019-03-10T18:30:41.133Z,81.45
2019-03-10T18:33:11.042Z,81.40
2019-03-10T18:35:40.576Z,81.33
2019-03-10T18:38:10.120Z,82.01
2019-03-10T18:40:39.671Z,82.02
2019-03-10T18:43:09.257Z,82.01
2019-03-10T18:45:38.810Z,82.07
2019-03-10T18:48:08.375Z,82.26
2019-03-10T18:50:37.996Z,82.23
2019-03-10T18:53:07.547Z,82.60
2019-03-10T18:55:37.138Z,82.71
2019-03-10T18:58:06.734Z,82.85
2019-03-10T19:00:36.320Z,83.19
2019-03-10T19:04:06.085Z,83.11
2019-03-10T19:06:35.715Z,83.39
2019-03-10T19:09:07.180Z,83.39
2019-03-10T19:11:36.731Z,83.24
2019-03-10T19:14:07.379Z,83.18
2019-03-10T19:16:36.942Z,83.16
2019-03-10T19:19:06.817Z,83.25
2019-03-10T19:21:36.354Z,84.08
2019-03-10T19:24:06.292Z,83.97
2019-03-10T19:26:36.339Z,84.27
2019-03-10T19:29:06.473Z,83.99
2019-03-10T19:31:36.692Z,84.15
2019-03-10T19:34:07.141Z,84.07
2019-03-10T19:36:39.121Z,83.92
2019-03-10T19:39:09.306Z,83.63
2019-03-10T19:41:39.411Z,83.13
2019-03-10T19:44:10.188Z,82.54
2019-03-10T19:46:40.087Z,81.44
2019-03-10T19:49:10.629Z,81.17
2019-03-10T19:51:40.943Z,80.29
2019-03-10T19:54:11.432Z,80.07
2019-03-10T19:56:42.569Z,79.53
2019-03-10T19:59:12.423Z,79.44
2019-03-10T20:01:43.960Z,79.81
2019-03-10T20:04:14.007Z,79.58
2019-03-10T20:06:44.102Z,79.24
2019-03-10T20:09:14.265Z,79.34
2019-03-10T20:11:44.562Z,79.31
2019-03-10T20:14:14.884Z,79.32
2019-03-10T20:16:44.772Z,79.10
2019-03-10T20:19:16.320Z,78.86
2019-03-10T20:21:46.368Z,78.80
2019-03-10T20:24:16.379Z,78.37
2019-03-10T20:26:46.744Z,78.23
2019-03-10T20:29:16.699Z,78.15
2019-03-10T20:31:46.818Z,77.82
2019-03-10T20:34:16.817Z,77.90
2019-03-10T20:36:46.791Z,77.93
2019-03-10T20:39:18.599Z,78.08
2019-03-10T20:41:48.597Z,78.14
2019-03-10T20:44:18.667Z,78.35
2019-03-10T20:46:48.594Z,78.85
2019-03-10T20:49:18.640Z,78.98
2019-03-10T20:51:48.414Z,79.27
2019-03-10T20:54:18.458Z,80.09
2019-03-10T20:56:48.602Z,80.15
2019-03-10T20:59:18.567Z,80.23
2019-03-10T21:01:48.642Z,80.17
2019-03-10T21:04:18.357Z,80.13
2019-03-10T21:06:49.375Z,79.93
2019-03-10T21:09:18.957Z,80.03
2019-03-10T21:11:48.577Z,80.05
2019-03-10T21:14:18.588Z,79.79
2019-03-10T21:16:48.117Z,78.45
2019-03-10T21:19:17.701Z,77.72
2019-03-10T21:21:47.661Z,77.33
2019-03-10T21:24:17.789Z,77.50
2019-03-10T21:26:47.654Z,77.04
2019-03-10T21:29:17.430Z,76.64
2019-03-10T21:31:47.694Z,76.58
2019-03-10T21:34:17.340Z,76.60
2019-03-10T21:36:46.897Z,76.54
2019-03-10T21:39:16.908Z,76.27
2019-03-10T21:41:46.968Z,76.65
2019-03-10T21:44:26.109Z,77.10
2019-03-10T21:46:49.907Z,77.04
2019-03-10T21:49:20.148Z,77.35
2019-03-10T21:51:50.263Z,77.47
2019-03-10T21:54:20.107Z,77.58
2019-03-10T21:56:49.686Z,77.53
2019-03-10T21:59:19.286Z,77.30
2019-03-10T22:01:49.199Z,77.03
2019-03-10T22:04:18.766Z,77.03
2019-03-10T22:06:48.863Z,77.04
2019-03-10T22:09:18.958Z,77.07
2019-03-10T22:11:48.880Z,77.04
2019-03-10T22:14:18.688Z,77.14
2019-03-10T22:16:49.440Z,77.34
2019-03-10T22:19:22.873Z,77.60
2019-03-10T22:21:50.986Z,77.63
2019-03-10T22:24:21.079Z,77.67
2019-03-10T22:26:51.219Z,77.57
2019-03-10T22:29:21.302Z,78.14
2019-03-10T22:31:51.293Z,78.10
2019-03-10T22:34:22.177Z,77.90
2019-03-10T22:36:52.150Z,78.22
2019-03-10T22:39:22.119Z,78.34
2019-03-10T22:41:51.789Z,78.25
2019-03-10T22:44:21.741Z,78.19
2019-03-10T22:46:51.693Z,78.21
2019-03-10T22:49:21.714Z,78.00
2019-03-10T22:51:51.702Z,78.02
2019-03-10T22:54:21.764Z,77.92
2019-03-10T22:56:51.617Z,77.74
2019-03-10T22:59:21.753Z,77.68
2019-03-10T23:01:51.494Z,77.48
2019-03-10T23:04:21.431Z,77.58
2019-03-10T23:06:51.293Z,77.53
2019-03-10T23:09:20.852Z,77.49
2019-03-10T23:11:50.666Z,77.46
2019-03-10T23:14:20.184Z,77.55
2019-03-10T23:16:52.247Z,77.64
2019-03-10T23:19:21.053Z,77.76
2019-03-10T23:21:50.589Z,77.66
2019-03-10T23:24:20.134Z,77.87
2019-03-10T23:26:49.660Z,77.97
2019-03-10T23:29:19.213Z,78.03
2019-03-10T23:31:48.749Z,77.93
2019-03-10T23:34:18.292Z,77.88
2019-03-10T23:36:47.838Z,77.80
2019-03-10T23:39:17.383Z,77.88
2019-03-10T23:41:46.910Z,77.96
2019-03-10T23:44:16.454Z,78.17
2019-03-10T23:46:45.979Z,78.24
2019-03-10T23:49:15.543Z,78.21
2019-03-10T23:51:45.107Z,78.31
2019-03-10T23:54:14.647Z,78.26
2019-03-10T23:56:44.192Z,78.31
2019-03-10T23:59:13.751Z,78.20
